Time;durP1;ratioP1;P1;durP2;ratioP2;P2;SDS_P1;SDS_P2;PMS_P1;PMS_P2;Temp;Humidity;BMP_temperature;BMP_pressure;BME280_temperature;BME280_humidity;BME280_pressure;Samples;Min_cycle;Max_cycle;Signal;HPM_P1;HPM_P2
2022/02/07 00:00:42;;;;;;;0.30;0.30;;;2.80;99.90;;;;;;6278286;22;20870;-86
2022/02/07 00:05:36;;;;;;;0.20;0.20;;;2.50;99.90;;;;;;6283669;22;20447;-86
2022/02/07 00:08:02;;;;;;;0.50;0.20;;;2.30;99.90;;;;;;6254066;22;20390;-87
2022/02/07 00:10:28;;;;;;;0.20;0.20;;;2.10;99.90;;;;;;6255373;22;20388;-87
2022/02/07 00:12:54;;;;;;;0.10;0.10;;;2.10;99.90;;;;;;6253449;22;20389;-87
2022/02/07 00:15:26;;;;;;;0.20;0.20;;;2.00;99.90;;;;;;6256239;22;20385;-88
2022/02/07 00:18:02;;;;;;;0.20;0.20;;;2.00;99.90;;;;;;6265135;22;20387;-87
2022/02/07 00:20:28;;;;;;;0.20;0.20;;;1.90;99.90;;;;;;6256738;22;20388;-86
2022/02/07 00:22:53;;;;;;;0.30;0.30;;;2.00;99.90;;;;;;6254599;22;20454;-88
2022/02/07 00:25:20;;;;;;;0.20;0.20;;;2.00;99.90;;;;;;6251160;22;20468;-87
2022/02/07 00:27:53;;;;;;;0.20;0.20;;;2.10;99.90;;;;;;6252719;22;20163;-86
2022/02/07 00:30:30;;;;;;;0.20;0.20;;;2.10;99.90;;;;;;6252588;22;20727;-87
2022/02/07 00:33:01;;;;;;;0.10;0.10;;;2.20;99.90;;;;;;6278614;22;20401;-88
2022/02/07 00:35:30;;;;;;;0.30;0.20;;;2.20;99.90;;;;;;6249678;22;20916;-87
2022/02/07 00:38:03;;;;;;;0.53;0.20;;;2.20;99.90;;;;;;6251732;22;20898;-86
2022/02/07 00:40:43;;;;;;;0.20;0.20;;;2.20;99.90;;;;;;6251148;22;20416;-86
2022/02/07 00:45:53;;;;;;;0.27;0.27;;;2.20;99.90;;;;;;6282023;22;20707;-86
2022/02/07 00:48:22;;;;;;;0.20;0.20;;;2.30;99.90;;;;;;6253991;22;20385;-87
2022/02/07 00:50:49;;;;;;;3.70;0.40;;;2.30;99.90;;;;;;6254540;22;20886;-87
2022/02/07 00:53:37;;;;;;;0.20;0.20;;;2.30;99.90;;;;;;6251606;22;20396;-86
2022/02/07 00:56:03;;;;;;;0.20;0.20;;;2.30;99.90;;;;;;6248819;22;20462;-86
2022/02/07 00:58:31;;;;;;;0.27;0.20;;;2.30;99.90;;;;;;6249158;22;20395;-86
2022/02/07 01:00:57;;;;;;;0.50;0.20;;;2.20;99.90;;;;;;6252621;22;20396;-86
2022/02/07 01:03:24;;;;;;;0.30;0.20;;;2.20;99.90;;;;;;6249879;22;20384;-86
2022/02/07 01:05:50;;;;;;;1.03;0.20;;;2.30;99.90;;;;;;6249686;22;20196;-86
2022/02/07 01:08:20;;;;;;;0.43;0.20;;;2.30;99.90;;;;;;6251710;22;20380;-86
2022/02/07 01:11:01;;;;;;;0.80;0.20;;;2.30;99.90;;;;;;6251956;22;20837;-88
2022/02/07 01:16:18;;;;;;;0.20;0.20;;;2.40;99.90;;;;;;6290306;22;20632;-86
2022/02/07 01:56:35;;;;;;;0.30;0.20;;;2.70;99.90;;;;;;6288526;22;20671;-86
2022/02/07 01:59:00;;;;;;;0.50;0.30;;;2.60;99.90;;;;;;6250525;22;20405;-86
2022/02/07 02:01:26;;;;;;;0.30;0.20;;;2.60;99.90;;;;;;6251812;22;20825;-86
2022/02/07 02:03:52;;;;;;;0.30;0.30;;;2.60;99.90;;;;;;6251022;22;20196;-86
2022/02/07 02:06:17;;;;;;;0.50;0.20;;;2.60;99.90;;;;;;6252362;22;20713;-86
2022/02/07 02:08:43;;;;;;;0.20;0.20;;;2.60;99.90;;;;;;6250223;22;20168;-85
2022/02/07 02:11:09;;;;;;;0.70;0.40;;;2.70;99.90;;;;;;6249931;22;20165;-86
2022/02/07 02:13:59;;;;;;;0.30;0.30;;;2.70;99.90;;;;;;6252073;22;20158;-85
2022/02/07 02:17:55;;;;;;;0.30;0.30;;;2.90;99.90;;;;;;6251212;22;20151;-84
2022/02/07 02:38:50;;;;;;;4.33;0.60;;;3.10;99.90;;;;;;6278936;22;20406;-84
2022/02/07 02:46:46;;;;;;;0.67;0.27;;;3.00;99.90;;;;;;6276498;22;20489;-85
2022/02/07 02:49:14;;;;;;;1.70;0.30;;;3.00;99.90;;;;;;6254361;22;20394;-86
2022/02/07 02:51:49;;;;;;;1.80;0.50;;;3.00;99.90;;;;;;6256073;22;20401;-86
2022/02/07 02:54:18;;;;;;;1.03;0.30;;;3.00;99.90;;;;;;6250510;22;20391;-87
2022/02/07 02:56:44;;;;;;;2.43;0.50;;;3.00;99.90;;;;;;6252308;22;20773;-86
2022/02/07 02:59:12;;;;;;;1.13;0.30;;;3.00;99.90;;;;;;6251421;22;20384;-86
2022/02/07 03:01:42;;;;;;;0.97;0.40;;;3.00;99.90;;;;;;6250838;22;20156;-86
2022/02/07 03:04:12;;;;;;;1.23;0.50;;;3.00;99.90;;;;;;6276307;22;20401;-86
2022/02/07 03:06:39;;;;;;;0.83;0.70;;;3.00;99.90;;;;;;6250895;22;20450;-86
2022/02/07 03:09:13;;;;;;;2.90;0.50;;;3.00;99.90;;;;;;6252048;22;20149;-87
2022/02/07 03:11:40;;;;;;;0.50;0.40;;;3.20;99.90;;;;;;6277445;22;20401;-85
2022/02/07 03:14:21;;;;;;;0.80;0.30;;;3.20;99.90;;;;;;6251540;22;20421;-85
2022/02/07 03:16:50;;;;;;;4.83;0.90;;;3.30;99.90;;;;;;6252074;22;20870;-86
2022/02/07 03:19:17;;;;;;;0.97;0.70;;;3.30;99.90;;;;;;6259730;22;20387;-84
2022/02/07 03:21:45;;;;;;;5.80;0.90;;;3.30;99.90;;;;;;6257075;22;20396;-87
2022/02/07 03:24:11;;;;;;;2.70;0.80;;;3.20;99.90;;;;;;6277563;22;20409;-85
2022/02/07 03:26:41;;;;;;;1.47;0.63;;;3.20;99.90;;;;;;6252047;22;20900;-85
2022/02/07 03:29:07;;;;;;;1.10;0.40;;;3.20;99.90;;;;;;6251631;22;20209;-85
2022/02/07 03:31:33;;;;;;;2.00;0.90;;;3.30;99.90;;;;;;6252233;22;21101;-85
2022/02/07 03:33:58;;;;;;;2.13;0.73;;;3.30;99.90;;;;;;6253053;22;20460;-86
2022/02/07 03:36:29;;;;;;;1.03;0.60;;;3.30;99.90;;;;;;6253527;22;20165;-85
2022/02/07 03:38:54;;;;;;;2.10;0.63;;;3.20;99.90;;;;;;6253617;22;20145;-84
2022/02/07 03:41:20;;;;;;;0.97;0.57;;;3.20;99.90;;;;;;6253588;22;20427;-85
2022/02/07 03:43:45;;;;;;;2.97;0.90;;;3.30;99.90;;;;;;6253749;22;20160;-85
2022/02/07 03:46:12;;;;;;;1.07;0.63;;;3.30;99.90;;;;;;6252895;22;20263;-84
2022/02/07 03:48:38;;;;;;;1.77;0.67;;;3.20;99.90;;;;;;6254678;22;20254;-86
2022/02/07 03:51:03;;;;;;;1.63;0.73;;;3.30;99.90;;;;;;6255177;22;20477;-84
2022/02/07 03:53:29;;;;;;;1.57;0.63;;;3.30;99.90;;;;;;6254355;22;20567;-85
2022/02/07 03:55:55;;;;;;;3.13;0.60;;;3.40;99.90;;;;;;6253728;22;20171;-85
2022/02/07 03:58:22;;;;;;;2.50;1.20;;;3.40;99.90;;;;;;6257642;22;20154;-86
2022/02/07 04:00:54;;;;;;;3.40;0.80;;;3.30;99.90;;;;;;6265804;22;20472;-85
2022/02/07 04:03:23;;;;;;;0.57;0.20;;;3.20;99.90;;;;;;6265196;22;20452;-86
2022/02/07 04:05:59;;;;;;;0.70;0.33;;;2.50;99.90;;;;;;6258770;22;20448;-85
2022/02/07 04:08:33;;;;;;;1.03;0.23;;;2.00;99.90;;;;;;6278465;22;20385;-85
2022/02/07 04:13:35;;;;;;;0.83;0.30;;;1.70;99.90;;;;;;6283918;22;20853;-86
2022/02/07 04:16:03;;;;;;;0.63;0.30;;;1.70;99.90;;;;;;6253728;22;20596;-86
2022/02/07 04:18:34;;;;;;;2.10;0.60;;;1.70;99.90;;;;;;6259835;22;20392;-86
2022/02/07 04:21:02;;;;;;;0.30;0.30;;;1.70;99.90;;;;;;6258613;22;20380;-85
2022/02/07 04:23:28;;;;;;;0.37;0.37;;;1.80;99.90;;;;;;6259289;22;20482;-86
2022/02/07 04:25:54;;;;;;;0.73;0.73;;;1.80;99.90;;;;;;6257207;22;20439;-86
2022/02/07 04:28:20;;;;;;;0.30;0.30;;;1.80;99.90;;;;;;6255746;22;20411;-86
2022/02/07 04:30:45;;;;;;;0.60;0.60;;;1.80;99.90;;;;;;6254444;22;20188;-86
2022/02/07 04:33:11;;;;;;;0.30;0.30;;;1.90;99.90;;;;;;6252319;22;20154;-86
2022/02/07 04:35:38;;;;;;;1.13;0.43;;;1.90;99.90;;;;;;6255530;22;20272;-85
2022/02/07 04:38:04;;;;;;;0.50;0.30;;;1.80;99.90;;;;;;6253430;22;20158;-85
2022/02/07 04:40:29;;;;;;;2.60;0.60;;;1.90;99.90;;;;;;6254742;22;20892;-85
2022/02/07 04:43:00;;;;;;;1.20;0.33;;;1.90;99.90;;;;;;6256185;22;20162;-86
2022/02/07 04:57:17;;;;;;;0.67;0.30;;;1.90;99.90;;;;;;6291757;22;20732;-87
2022/02/07 05:02:59;;;;;;;1.53;0.53;;;2.00;99.90;;;;;;6194579;22;20475;-87
2022/02/07 05:14:36;;;;;;;1.00;0.83;;;2.00;99.90;;;;;;6283540;22;20355;-86
2022/02/07 05:17:06;;;;;;;0.40;0.40;;;2.00;99.90;;;;;;6239484;22;20801;-86
2022/02/07 05:19:32;;;;;;;1.33;0.77;;;2.00;99.90;;;;;;6258825;22;20426;-86
2022/02/07 05:22:04;;;;;;;3.47;0.60;;;2.10;99.90;;;;;;6260529;22;20405;-86
2022/02/07 05:24:30;;;;;;;3.07;1.00;;;2.00;99.90;;;;;;6287227;22;20389;-86
2022/02/07 05:27:00;;;;;;;2.33;0.80;;;2.00;99.90;;;;;;6234132;22;20912;-85
2022/02/07 05:29:28;;;;;;;1.03;0.90;;;2.00;99.90;;;;;;6255120;22;20403;-86
2022/02/07 05:31:56;;;;;;;4.70;1.00;;;2.00;99.90;;;;;;6281388;22;20392;-86
2022/02/07 05:34:43;;;;;;;2.30;0.80;;;2.00;99.90;;;;;;6225724;22;20400;-86
2022/02/07 05:37:18;;;;;;;1.50;0.53;;;2.00;99.90;;;;;;6257953;22;20448;-85
2022/02/07 05:39:53;;;;;;;2.03;0.63;;;2.00;99.90;;;;;;6279188;22;20712;-88
2022/02/07 05:42:18;;;;;;;5.73;1.13;;;2.00;99.90;;;;;;6251825;22;20388;-85
2022/02/07 05:44:46;;;;;;;3.40;0.63;;;1.90;99.90;;;;;;6260695;22;20393;-85
2022/02/07 05:47:13;;;;;;;5.73;0.83;;;1.90;99.90;;;;;;6259795;22;20311;-85
2022/02/07 05:49:39;;;;;;;4.63;0.70;;;2.00;99.90;;;;;;6256716;22;20693;-85
2022/02/07 05:52:05;;;;;;;1.30;0.60;;;2.00;99.90;;;;;;6251112;22;20420;-87
2022/02/07 05:54:31;;;;;;;3.00;0.60;;;2.00;99.90;;;;;;6253664;22;20412;-84
2022/02/07 05:57:00;;;;;;;2.63;0.70;;;2.00;99.90;;;;;;6252603;22;20995;-85
2022/02/07 05:59:25;;;;;;;2.00;0.70;;;2.10;99.90;;;;;;6252459;22;20739;-84
2022/02/07 06:01:51;;;;;;;0.60;0.50;;;2.10;99.90;;;;;;6252308;22;20495;-85
2022/02/07 06:04:17;;;;;;;0.70;0.70;;;2.10;99.90;;;;;;6255709;22;20611;-84
2022/02/07 06:06:42;;;;;;;1.30;0.67;;;2.10;99.90;;;;;;6251635;22;20189;-84
2022/02/07 06:09:08;;;;;;;2.00;1.00;;;2.10;99.90;;;;;;6262914;22;20153;-84
2022/02/07 06:11:36;;;;;;;3.07;0.70;;;2.10;99.90;;;;;;6263343;22;20163;-85
2022/02/07 06:14:02;;;;;;;2.73;0.60;;;2.20;99.90;;;;;;6270951;22;20468;-84
2022/02/07 06:16:31;;;;;;;3.80;0.90;;;2.30;99.90;;;;;;6263856;22;20487;-84
2022/02/07 06:18:59;;;;;;;4.13;1.10;;;2.30;99.90;;;;;;6259532;22;20401;-85
2022/02/07 06:21:26;;;;;;;4.37;0.93;;;2.20;99.90;;;;;;6260063;22;20388;-84
2022/02/07 06:23:55;;;;;;;4.83;1.23;;;2.30;99.90;;;;;;6259242;22;20748;-83
2022/02/07 06:26:21;;;;;;;5.20;0.97;;;2.30;99.90;;;;;;6260240;22;20448;-85
2022/02/07 06:28:49;;;;;;;2.93;1.10;;;2.30;99.90;;;;;;6259182;22;20389;-85
2022/02/07 06:32:06;;;;;;;;;;;;;;;;;;;;;
2022/02/07 06:35:17;;;;;;;;;;;;;;;;;;;;;
2022/02/07 06:37:45;;;;;;;4.10;1.43;;;2.50;99.90;;;;;;6263937;22;20377;-86
2022/02/07 06:40:11;;;;;;;4.93;0.83;;;2.50;99.90;;;;;;6260281;22;20455;-85
2022/02/07 06:42:42;;;;;;;1.90;1.33;;;2.50;99.90;;;;;;6260060;22;20408;-85
2022/02/07 06:45:34;;;;;;;2.10;1.00;;;2.40;99.90;;;;;;6255559;22;20913;-85
2022/02/07 06:48:05;;;;;;;3.60;1.47;;;2.50;99.90;;;;;;6259154;22;20393;-85
2022/02/07 06:50:31;;;;;;;4.07;1.23;;;2.50;99.90;;;;;;6253720;22;20402;-86
2022/02/07 06:53:11;;;;;;;3.17;1.33;;;2.60;99.90;;;;;;6287192;22;20409;-85
2022/02/07 06:55:37;;;;;;;2.17;1.10;;;2.60;99.90;;;;;;6259624;22;20409;-84
2022/02/07 06:58:43;;;;;;;1.10;0.60;;;2.60;99.90;;;;;;6259008;22;20251;-87
2022/02/07 07:01:44;;;;;;;1.43;1.17;;;2.60;99.90;;;;;;6138640;23;20403;-86
2022/02/07 07:04:56;;;;;;;;;;;;;;;;;;;;;
2022/02/07 07:07:29;;;;;;;2.73;0.87;;;2.60;99.90;;;;;;6129835;23;20420;-85
2022/02/07 07:09:58;;;;;;;4.53;0.90;;;2.50;99.90;;;;;;6158736;23;20393;-84
2022/02/07 07:12:23;;;;;;;4.67;1.10;;;2.50;99.90;;;;;;6230322;22;20225;-83
2022/02/07 07:15:02;;;;;;;3.50;1.73;;;2.50;99.90;;;;;;6262387;22;20390;-83
2022/02/07 07:17:31;;;;;;;3.83;2.23;;;2.50;99.90;;;;;;6259524;22;20210;-84
2022/02/07 07:20:02;;;;;;;2.30;0.90;;;2.50;99.90;;;;;;6256391;22;20390;-84
2022/02/07 07:22:35;;;;;;;3.97;1.77;;;2.60;99.90;;;;;;6253343;22;20760;-85
2022/02/07 07:25:03;;;;;;;1.80;1.07;;;2.60;99.90;;;;;;6255576;22;20469;-84
2022/02/07 07:27:34;;;;;;;1.63;1.00;;;2.60;99.90;;;;;;6256735;22;20383;-83
2022/02/07 07:30:00;;;;;;;2.50;1.17;;;2.60;99.90;;;;;;6255191;22;20425;-84
2022/02/07 07:32:30;;;;;;;1.07;0.80;;;2.60;99.90;;;;;;6257070;22;20464;-84
2022/02/07 07:34:56;;;;;;;1.90;1.20;;;2.60;99.90;;;;;;6255510;22;20831;-84
2022/02/07 07:37:22;;;;;;;4.40;1.30;;;2.60;99.90;;;;;;6254972;22;20787;-85
2022/02/07 07:39:51;;;;;;;3.10;1.30;;;2.60;99.90;;;;;;6255189;22;20394;-85
2022/02/07 07:42:16;;;;;;;3.70;0.80;;;2.60;99.90;;;;;;6257295;22;20400;-85
2022/02/07 07:44:44;;;;;;;2.33;1.20;;;2.70;99.90;;;;;;6254158;22;20854;-84
2022/02/07 07:47:14;;;;;;;3.17;1.30;;;2.70;99.90;;;;;;6259413;22;20218;-85
2022/02/07 07:50:09;;;;;;;0.83;0.70;;;2.70;99.90;;;;;;6255700;22;20390;-84
2022/02/07 08:03:27;;;;;;;8.13;1.70;;;2.70;99.90;;;;;;6280446;22;20382;-85
2022/02/07 08:06:07;;;;;;;1.40;1.30;;;2.80;99.90;;;;;;6255945;22;20444;-84
2022/02/07 08:08:41;;;;;;;2.70;1.17;;;2.80;99.90;;;;;;6253919;22;20547;-85
2022/02/07 08:11:12;;;;;;;1.67;1.00;;;2.80;99.90;;;;;;6254761;22;20394;-84
2022/02/07 08:13:54;;;;;;;3.40;2.50;;;2.90;99.90;;;;;;6283599;22;20557;-85
2022/02/07 08:16:20;;;;;;;2.57;1.20;;;3.00;99.90;;;;;;6256514;22;20422;-84
2022/02/07 08:18:45;;;;;;;4.07;1.03;;;2.90;99.90;;;;;;6258471;22;20416;-83
2022/02/07 08:21:11;;;;;;;4.53;1.60;;;2.90;99.90;;;;;;6254559;22;20153;-84
2022/02/07 08:23:39;;;;;;;9.80;2.40;;;2.90;99.90;;;;;;6259451;22;20232;-84
2022/02/07 08:26:06;;;;;;;4.87;1.50;;;3.00;99.90;;;;;;6259520;22;20750;-85
2022/02/07 08:28:32;;;;;;;5.87;2.63;;;3.10;99.90;;;;;;6257372;22;20380;-83
2022/02/07 08:30:58;;;;;;;3.13;1.43;;;3.20;99.90;;;;;;6257147;22;20475;-84
2022/02/07 08:33:24;;;;;;;4.40;1.70;;;3.30;99.90;;;;;;6251555;22;20380;-84
2022/02/07 08:35:50;;;;;;;10.33;2.23;;;3.40;99.90;;;;;;6255514;22;20878;-84
2022/02/07 08:38:19;;;;;;;2.33;1.50;;;3.40;99.90;;;;;;6256688;22;20157;-83
2022/02/07 08:40:48;;;;;;;3.03;1.00;;;3.50;99.90;;;;;;6253794;22;20399;-83
2022/02/07 08:43:14;;;;;;;5.40;2.40;;;3.80;99.90;;;;;;6257777;22;20388;-84
2022/02/07 08:45:40;;;;;;;2.93;1.30;;;3.90;99.90;;;;;;6259102;22;20774;-83
2022/02/07 08:48:06;;;;;;;2.97;1.63;;;3.90;99.90;;;;;;6252886;22;20384;-84
2022/02/07 08:50:32;;;;;;;4.93;2.07;;;4.00;99.90;;;;;;6257908;22;20188;-84
2022/02/07 08:53:00;;;;;;;6.70;1.47;;;4.10;99.90;;;;;;6259011;22;20798;-84
2022/02/07 08:55:39;;;;;;;3.87;1.57;;;4.40;99.90;;;;;;6261706;22;20487;-84
2022/02/07 08:58:17;;;;;;;5.23;1.60;;;4.60;99.90;;;;;;6260104;22;20384;-84
2022/02/07 09:08:51;;;;;;;5.30;1.93;;;4.20;99.90;;;;;;6296910;22;20369;-83
2022/02/07 09:11:20;;;;;;;2.67;1.57;;;4.20;99.90;;;;;;6256030;22;20876;-84
2022/02/07 09:13:49;;;;;;;7.13;2.00;;;4.10;99.90;;;;;;6256914;22;20411;-84
2022/02/07 09:16:29;;;;;;;2.20;1.30;;;4.00;99.90;;;;;;6257196;22;20434;-84
2022/02/07 09:18:55;;;;;;;3.97;1.13;;;4.00;99.90;;;;;;6255286;22;20188;-84
2022/02/07 09:21:21;;;;;;;3.00;0.93;;;4.00;99.90;;;;;;6251092;22;20489;-84
2022/02/07 09:23:49;;;;;;;3.57;1.10;;;4.00;99.90;;;;;;6258042;22;20399;-85
2022/02/07 09:26:17;;;;;;;3.33;1.20;;;4.00;99.90;;;;;;6256565;22;20264;-86
2022/02/07 09:28:43;;;;;;;7.70;2.10;;;3.90;99.90;;;;;;6252620;22;20416;-86
2022/02/07 09:31:10;;;;;;;3.03;1.43;;;4.00;99.90;;;;;;6255565;22;20419;-85
2022/02/07 09:33:41;;;;;;;1.90;0.90;;;3.90;99.90;;;;;;6257912;22;20509;-85
2022/02/07 09:36:09;;;;;;;6.20;1.70;;;3.90;99.90;;;;;;6262234;22;20400;-87
2022/02/07 09:38:35;;;;;;;5.27;2.03;;;4.00;99.90;;;;;;6258417;22;20409;-85
2022/02/07 09:41:01;;;;;;;2.90;2.27;;;4.10;99.90;;;;;;6258057;22;20462;-86
2022/02/07 09:43:34;;;;;;;5.40;1.80;;;4.10;99.90;;;;;;6257122;22;20157;-86
2022/02/07 09:46:06;;;;;;;2.87;1.17;;;4.20;99.90;;;;;;6260378;22;20199;-86
2022/02/07 09:48:35;;;;;;;3.63;1.10;;;4.20;99.90;;;;;;6236357;22;20817;-85
2022/02/07 09:51:01;;;;;;;2.50;1.37;;;4.20;99.90;;;;;;6260745;22;20392;-85
2022/02/07 09:53:27;;;;;;;1.90;1.10;;;4.20;99.90;;;;;;6260467;22;20419;-85
2022/02/07 09:55:56;;;;;;;2.13;1.30;;;4.40;99.90;;;;;;6262054;22;20714;-86
2022/02/07 09:58:21;;;;;;;1.67;1.30;;;4.30;99.90;;;;;;6260777;22;20522;-86
2022/02/07 10:00:50;;;;;;;2.63;1.40;;;4.30;99.90;;;;;;6261101;22;20445;-86
2022/02/07 10:03:30;;;;;;;4.17;1.77;;;4.30;99.90;;;;;;6260270;22;20766;-86
2022/02/07 10:06:14;;;;;;;2.73;1.37;;;4.30;99.90;;;;;;6261486;22;20229;-86
2022/02/07 10:13:54;;;;;;;2.07;1.23;;;4.20;99.90;;;;;;6287728;22;20927;-85
2022/02/07 10:44:33;;;;;;;2.57;1.57;;;5.30;99.90;;;;;;6298655;22;20719;-85
2022/02/07 10:47:08;;;;;;;3.70;1.43;;;5.20;99.90;;;;;;6261410;22;20441;-86
2022/02/07 10:49:35;;;;;;;3.00;1.30;;;5.10;99.90;;;;;;6262148;22;20395;-86
2022/02/07 10:52:02;;;;;;;5.00;1.60;;;5.30;99.90;;;;;;6263087;22;20729;-86
2022/02/07 10:54:31;;;;;;;4.50;1.57;;;5.50;99.90;;;;;;6258304;22;20391;-86
2022/02/07 10:57:06;;;;;;;1.47;1.17;;;5.30;99.90;;;;;;6260150;22;20405;-86
2022/02/07 10:59:35;;;;;;;6.37;1.60;;;5.60;99.90;;;;;;6260168;22;20415;-86
2022/02/07 11:05:11;;;;;;;9.37;1.67;;;5.10;99.90;;;;;;6286051;22;20436;-86
2022/02/07 11:08:05;;;;;;;3.43;1.23;;;5.00;99.90;;;;;;6259329;22;20494;-86
2022/02/07 11:11:02;;;;;;;3.23;0.90;;;4.90;99.90;;;;;;6287203;22;20388;-86
2022/02/07 11:13:45;;;;;;;2.93;1.10;;;4.90;99.90;;;;;;6287450;22;20384;-85
2022/02/07 11:19:33;;;;;;;2.80;1.03;;;4.90;99.90;;;;;;6287787;22;20577;-86
2022/02/07 11:27:54;;;;;;;2.77;1.07;;;5.10;99.90;;;;;;6283454;22;20437;-86
2022/02/07 11:30:41;;;;;;;3.83;1.40;;;5.10;99.90;;;;;;6273402;22;20378;-85
2022/02/07 11:33:27;;;;;;;4.00;1.93;;;5.10;99.90;;;;;;6272954;22;20389;-86
2022/02/07 11:35:52;;;;;;;5.73;1.80;;;5.00;99.90;;;;;;6262322;22;20408;-85
2022/02/07 11:38:19;;;;;;;6.43;1.90;;;5.10;99.90;;;;;;6258637;22;20871;-85
2022/02/07 11:41:05;;;;;;;3.47;1.67;;;5.00;99.90;;;;;;6260393;22;20158;-86
2022/02/07 11:43:31;;;;;;;3.63;1.40;;;5.00;99.90;;;;;;6258397;22;20561;-85
2022/02/07 11:46:05;;;;;;;1.90;1.10;;;4.90;99.90;;;;;;6260600;22;20447;-85
2022/02/07 11:48:51;;;;;;;3.60;1.50;;;4.80;99.90;;;;;;6260133;22;20392;-85
2022/02/07 11:51:25;;;;;;;13.00;1.77;;;4.70;99.90;;;;;;6261219;22;20388;-86
2022/02/07 11:53:59;;;;;;;2.23;1.03;;;4.70;99.90;;;;;;6260766;22;20708;-85
2022/02/07 11:56:53;;;;;;;3.80;1.23;;;4.70;99.90;;;;;;6261119;22;20391;-85
2022/02/07 12:02:06;;;;;;;4.60;1.63;;;4.60;99.90;;;;;;6288218;22;20373;-85
2022/02/07 12:04:37;;;;;;;2.70;1.30;;;4.60;99.90;;;;;;6257452;22;20899;-86
2022/02/07 12:07:10;;;;;;;3.63;1.43;;;4.60;99.90;;;;;;6260937;22;20490;-86
2022/02/07 12:09:37;;;;;;;6.03;1.53;;;4.70;99.90;;;;;;6260828;22;20763;-86
2022/02/07 12:12:04;;;;;;;2.87;1.40;;;4.70;99.90;;;;;;6259201;22;20393;-85
2022/02/07 12:14:31;;;;;;;5.53;1.53;;;4.60;99.90;;;;;;6260395;22;20638;-85
2022/02/07 12:16:57;;;;;;;5.70;2.00;;;4.70;99.90;;;;;;6260005;22;20476;-85
2022/02/07 12:19:40;;;;;;;4.53;1.63;;;4.70;99.90;;;;;;6259090;22;20389;-85
2022/02/07 12:22:17;;;;;;;2.83;1.00;;;4.70;99.90;;;;;;6259844;22;20919;-85
2022/02/07 12:24:57;;;;;;;2.63;1.27;;;4.80;99.90;;;;;;6259350;22;20562;-85
2022/02/07 12:27:24;;;;;;;6.73;1.50;;;4.90;99.90;;;;;;6266880;22;20480;-86
2022/02/07 12:30:16;;;;;;;5.50;1.20;;;5.00;99.90;;;;;;6270843;22;20377;-86
2022/02/07 12:32:43;;;;;;;4.20;1.10;;;5.00;99.90;;;;;;6270286;22;20388;-86
2022/02/07 12:35:13;;;;;;;1.53;1.13;;;5.00;99.90;;;;;;6262069;22;20381;-86
2022/02/07 12:37:42;;;;;;;2.67;1.70;;;5.00;99.90;;;;;;6261571;22;20398;-86
2022/02/07 12:40:10;;;;;;;4.67;2.53;;;5.00;99.90;;;;;;6263390;22;20381;-86
2022/02/07 12:42:37;;;;;;;5.90;1.63;;;5.10;99.90;;;;;;6258879;22;20404;-85
2022/02/07 12:45:04;;;;;;;3.73;2.40;;;5.20;99.90;;;;;;6258987;22;20626;-85
2022/02/07 12:47:35;;;;;;;6.00;1.97;;;5.10;99.90;;;;;;6258337;22;20395;-85
2022/02/07 12:50:14;;;;;;;2.13;1.70;;;5.10;99.90;;;;;;6260878;22;20397;-85
2022/02/07 12:52:41;;;;;;;8.43;2.90;;;5.10;99.90;;;;;;6285346;22;20401;-86
2022/02/07 12:55:11;;;;;;;5.30;2.50;;;5.20;99.90;;;;;;6259098;22;20383;-86
2022/02/07 12:57:49;;;;;;;5.23;2.10;;;5.40;99.90;;;;;;6259106;22;20392;-86
2022/02/07 13:00:29;;;;;;;6.13;3.50;;;5.50;99.90;;;;;;6260543;22;20781;-86
2022/02/07 13:02:54;;;;;;;4.80;1.60;;;5.40;99.90;;;;;;6259679;22;20915;-85
2022/02/07 13:05:21;;;;;;;7.20;2.53;;;5.40;99.90;;;;;;6259015;22;20558;-86
2022/02/07 13:07:51;;;;;;;6.23;2.47;;;5.40;99.90;;;;;;6259936;22;20348;-86
2022/02/07 13:10:22;;;;;;;3.00;1.43;;;5.50;99.90;;;;;;6259350;22;20813;-86
2022/02/07 13:15:30;;;;;;;4.73;1.43;;;5.40;99.90;;;;;;6287642;22;20805;-86
2022/02/07 13:18:04;;;;;;;6.27;1.73;;;5.30;99.90;;;;;;6259253;22;20396;-86
2022/02/07 13:20:41;;;;;;;6.70;1.97;;;5.30;99.90;;;;;;6259306;22;20833;-86
2022/02/07 13:23:15;;;;;;;5.77;2.00;;;5.30;99.90;;;;;;6260059;22;20389;-86
2022/02/07 13:25:52;;;;;;;3.27;1.50;;;5.20;99.90;;;;;;6262985;22;20449;-86
2022/02/07 13:28:30;;;;;;;4.30;1.00;;;5.20;99.90;;;;;;6260085;22;20766;-85
2022/02/07 13:31:20;;;;;;;5.37;1.27;;;5.20;99.90;;;;;;6261909;22;20683;-86
2022/02/07 13:33:51;;;;;;;2.47;2.27;;;5.10;99.90;;;;;;6258428;22;20866;-86
2022/02/07 13:36:49;;;;;;;2.40;1.30;;;5.00;99.90;;;;;;6261715;22;20388;-86
2022/02/07 13:39:30;;;;;;;3.03;1.50;;;5.00;99.90;;;;;;6260136;22;20397;-86
2022/02/07 13:42:15;;;;;;;5.13;1.57;;;5.00;99.90;;;;;;6259466;22;20776;-85
2022/02/07 13:44:42;;;;;;;3.90;1.40;;;5.10;99.90;;;;;;6258941;22;20730;-86
2022/02/07 13:47:09;;;;;;;2.03;1.70;;;5.10;99.90;;;;;;6253368;22;20491;-86
2022/02/07 13:49:58;;;;;;;3.37;0.83;;;5.20;99.90;;;;;;6255792;22;20493;-85
2022/02/07 13:52:30;;;;;;;3.67;1.20;;;5.10;99.90;;;;;;6251535;22;20392;-86
2022/02/07 13:55:22;;;;;;;4.17;1.83;;;5.20;99.90;;;;;;6252760;22;20390;-85
2022/02/07 13:58:08;;;;;;;4.67;1.13;;;5.20;99.90;;;;;;6251905;22;20395;-86
2022/02/07 14:01:13;;;;;;;2.90;2.03;;;5.20;99.90;;;;;;6257652;22;20773;-87
2022/02/07 14:03:48;;;;;;;3.13;1.50;;;5.30;99.90;;;;;;6232609;22;20862;-88
2022/02/07 14:06:18;;;;;;;2.97;1.47;;;5.30;99.90;;;;;;6255675;22;20433;-88
2022/02/07 14:08:52;;;;;;;2.23;1.30;;;5.30;99.90;;;;;;6276619;22;20390;-87
2022/02/07 14:11:27;;;;;;;3.70;2.30;;;5.30;99.90;;;;;;6247724;22;20379;-86
2022/02/07 14:14:05;;;;;;;1.70;1.37;;;5.30;99.90;;;;;;6246623;22;20397;-87
2022/02/07 14:16:33;;;;;;;3.20;1.40;;;5.50;99.90;;;;;;6255468;22;20890;-87
2022/02/07 14:18:59;;;;;;;4.50;1.30;;;5.50;99.90;;;;;;6246953;22;20810;-88
2022/02/07 14:21:36;;;;;;;;;;;;;;;;;;;;;
2022/02/07 14:24:03;;;;;;;2.67;1.43;;;5.30;99.90;;;;;;6277834;22;20385;-87
2022/02/07 14:26:36;;;;;;;2.63;1.40;;;5.30;99.90;;;;;;6246932;22;20445;-85
2022/02/07 14:29:04;;;;;;;4.33;3.13;;;5.40;99.90;;;;;;6247057;22;20508;-87
2022/02/07 14:31:32;;;;;;;2.10;1.03;;;5.50;99.90;;;;;;6252753;22;20407;-87
2022/02/07 14:34:07;;;;;;;4.90;1.77;;;5.40;99.90;;;;;;6249574;22;20483;-88
2022/02/07 14:36:36;;;;;;;4.23;1.77;;;5.30;99.90;;;;;;6222461;22;20811;-88
2022/02/07 14:39:06;;;;;;;3.43;1.30;;;5.30;99.90;;;;;;6247978;22;20509;-85
2022/02/07 14:41:32;;;;;;;4.90;1.47;;;5.30;99.90;;;;;;6246991;22;20975;-84
2022/02/07 14:44:02;;;;;;;4.30;1.50;;;5.40;99.90;;;;;;6249330;22;20391;-85
2022/02/07 14:46:49;;;;;;;4.13;1.60;;;5.30;99.90;;;;;;6258892;22;20444;-86
2022/02/07 14:49:15;;;;;;;2.50;1.43;;;5.40;99.90;;;;;;6251975;22;20371;-85
2022/02/07 14:51:40;;;;;;;2.77;1.77;;;5.50;99.90;;;;;;6255270;22;20389;-85
2022/02/07 14:54:06;;;;;;;4.07;1.53;;;5.60;99.90;;;;;;6255780;22;20163;-85
2022/02/07 14:56:32;;;;;;;5.70;2.10;;;5.70;99.90;;;;;;6258447;22;20235;-86
2022/02/07 14:59:15;;;;;;;6.83;2.30;;;5.80;99.90;;;;;;6248027;22;20391;-87
2022/02/07 15:01:44;;;;;;;3.00;1.77;;;5.80;99.90;;;;;;6253111;22;20174;-86
2022/02/07 15:04:10;;;;;;;3.50;1.63;;;5.90;99.90;;;;;;6260138;22;20608;-86
2022/02/07 15:06:36;;;;;;;3.40;1.70;;;5.90;99.90;;;;;;6258309;22;20470;-85
2022/02/07 15:09:02;;;;;;;3.83;1.43;;;6.10;99.90;;;;;;6258470;22;20728;-86
2022/02/07 15:11:28;;;;;;;2.93;1.67;;;6.30;99.90;;;;;;6260837;22;20730;-86
2022/02/07 15:13:54;;;;;;;4.47;1.73;;;6.50;99.90;;;;;;6261626;22;20452;-86
2022/02/07 15:16:20;;;;;;;3.70;1.47;;;6.40;99.90;;;;;;6262639;22;20172;-86
2022/02/07 15:18:46;;;;;;;5.10;1.60;;;6.20;99.90;;;;;;6261657;22;20898;-87
2022/02/07 15:21:12;;;;;;;3.40;1.40;;;5.80;99.90;;;;;;6249293;22;20401;-84
2022/02/07 15:23:41;;;;;;;2.40;1.30;;;5.60;99.90;;;;;;6243616;22;20210;-83
2022/02/07 15:26:08;;;;;;;7.83;1.67;;;5.60;99.90;;;;;;6219251;22;20870;-85
2022/02/07 15:28:39;;;;;;;1.00;0.90;;;5.50;99.90;;;;;;6267360;22;20382;-84
2022/02/07 15:31:05;;;;;;;3.37;1.33;;;5.50;99.90;;;;;;6243123;22;20392;-84
2022/02/07 15:33:37;;;;;;;2.77;1.17;;;5.40;99.90;;;;;;6247112;22;20448;-83
2022/02/07 15:36:06;;;;;;;2.33;1.30;;;5.40;99.90;;;;;;6241923;22;20401;-83
2022/02/07 15:38:33;;;;;;;4.30;1.30;;;5.30;99.90;;;;;;6244623;22;20489;-83
2022/02/07 15:41:05;;;;;;;6.97;2.80;;;5.30;99.90;;;;;;6240302;22;20399;-83
2022/02/07 15:43:31;;;;;;;4.67;2.70;;;5.20;99.90;;;;;;6241883;22;20897;-83
2022/02/07 15:45:57;;;;;;;5.17;2.50;;;5.10;99.90;;;;;;6239326;22;20511;-84
2022/02/07 15:48:24;;;;;;;4.33;2.00;;;5.00;99.90;;;;;;6246465;22;20245;-84
2022/02/07 15:50:58;;;;;;;1.93;1.60;;;4.90;99.90;;;;;;6241374;22;20162;-83
2022/02/07 15:53:23;;;;;;;3.93;1.93;;;4.90;99.90;;;;;;6242659;22;20879;-84
2022/02/07 15:55:50;;;;;;;5.13;2.67;;;4.80;99.90;;;;;;6275041;22;20495;-84
2022/02/07 15:58:16;;;;;;;3.07;2.30;;;4.80;99.90;;;;;;6251042;22;20485;-84
2022/02/07 16:00:42;;;;;;;5.10;2.10;;;4.70;99.90;;;;;;6247008;22;20429;-83
2022/02/07 16:03:07;;;;;;;2.40;1.10;;;4.70;99.90;;;;;;6246529;22;20518;-83
2022/02/07 16:05:33;;;;;;;4.80;1.50;;;4.60;99.90;;;;;;6252326;22;20626;-84
2022/02/07 16:08:00;;;;;;;3.37;2.10;;;4.60;99.90;;;;;;6246133;22;20172;-83